Terminal Aerodrome Forecast
Issued by NWS

Home | Current Version | Previous Version | Text Only | Print | Product List | Glossary On
Versions: 1 2 3 4 5 6 7 8 9 10 11 12 13 14
000
FTUS45 KRIW 202300
TAFRKS
TAF
KRKS 202320Z 2100/2124 21007KT P6SM FEW090
     FM210800 20012KT P6SM SCT080 BKN150
     FM211500 21016G24KT P6SM SCT040 BKN070
     FM212100 29020G28KT P6SM -SHRA OVC030=

USA.gov is the U.S. government's official web portal to all federal, state and local government web resources and services.